sensor_id;sensor_type;location;lat;lon;timestamp;P1;durP1;ratioP1;P2;durP2;ratioP2
67037;SDS011;53940;53.204;6.590;2024-03-08T00:01:45;2.25;;;1.80;;
67037;SDS011;53940;53.204;6.590;2024-03-08T00:04:46;2.92;;;2.15;;
67037;SDS011;53940;53.204;6.590;2024-03-08T00:07:46;2.70;;;2.00;;
67037;SDS011;53940;53.204;6.590;2024-03-08T00:10:47;2.55;;;1.70;;
67037;SDS011;53940;53.204;6.590;2024-03-08T00:13:47;2.50;;;1.80;;
67037;SDS011;53940;53.204;6.590;2024-03-08T00:16:47;2.78;;;2.40;;
67037;SDS011;53940;53.204;6.590;2024-03-08T00:19:48;2.80;;;1.90;;
67037;SDS011;53940;53.204;6.590;2024-03-08T00:22:49;2.75;;;2.00;;
67037;SDS011;53940;53.204;6.590;2024-03-08T00:25:51;2.60;;;1.90;;
67037;SDS011;53940;53.204;6.590;2024-03-08T00:28:51;2.58;;;1.90;;
67037;SDS011;53940;53.204;6.590;2024-03-08T00:31:51;3.13;;;2.20;;
67037;SDS011;53940;53.204;6.590;2024-03-08T00:34:52;2.92;;;2.30;;
67037;SDS011;53940;53.204;6.590;2024-03-08T00:37:52;2.70;;;1.98;;
67037;SDS011;53940;53.204;6.590;2024-03-08T00:40:52;2.70;;;2.10;;
67037;SDS011;53940;53.204;6.590;2024-03-08T00:43:53;3.38;;;2.17;;
67037;SDS011;53940;53.204;6.590;2024-03-08T00:46:53;2.72;;;1.88;;
67037;SDS011;53940;53.204;6.590;2024-03-08T00:49:53;2.80;;;2.05;;
67037;SDS011;53940;53.204;6.590;2024-03-08T00:52:56;2.60;;;1.83;;
67037;SDS011;53940;53.204;6.590;2024-03-08T00:55:56;3.10;;;2.10;;
67037;SDS011;53940;53.204;6.590;2024-03-08T00:58:57;3.15;;;2.42;;
67037;SDS011;53940;53.204;6.590;2024-03-08T01:01:57;2.45;;;2.00;;
67037;SDS011;53940;53.204;6.590;2024-03-08T01:04:57;2.80;;;1.95;;
67037;SDS011;53940;53.204;6.590;2024-03-08T01:07:58;2.78;;;2.10;;
67037;SDS011;53940;53.204;6.590;2024-03-08T01:10:58;3.22;;;2.40;;
67037;SDS011;53940;53.204;6.590;2024-03-08T01:13:58;3.38;;;2.78;;
67037;SDS011;53940;53.204;6.590;2024-03-08T01:16:59;3.67;;;2.63;;
67037;SDS011;53940;53.204;6.590;2024-03-08T01:19:59;3.00;;;2.08;;
67037;SDS011;53940;53.204;6.590;2024-03-08T01:22:59;3.65;;;2.60;;
67037;SDS011;53940;53.204;6.590;2024-03-08T01:26:00;3.70;;;2.83;;
67037;SDS011;53940;53.204;6.590;2024-03-08T01:29:02;3.38;;;2.60;;
67037;SDS011;53940;53.204;6.590;2024-03-08T01:32:03;2.97;;;2.50;;
67037;SDS011;53940;53.204;6.590;2024-03-08T01:35:04;3.63;;;2.90;;
67037;SDS011;53940;53.204;6.590;2024-03-08T01:38:04;3.45;;;2.60;;
67037;SDS011;53940;53.204;6.590;2024-03-08T01:41:05;3.78;;;2.88;;
67037;SDS011;53940;53.204;6.590;2024-03-08T01:44:05;4.10;;;2.97;;
67037;SDS011;53940;53.204;6.590;2024-03-08T01:47:07;4.00;;;3.03;;
67037;SDS011;53940;53.204;6.590;2024-03-08T01:50:07;4.00;;;3.40;;
67037;SDS011;53940;53.204;6.590;2024-03-08T01:53:09;4.95;;;3.40;;
67037;SDS011;53940;53.204;6.590;2024-03-08T01:56:12;3.50;;;2.80;;
67037;SDS011;53940;53.204;6.590;2024-03-08T01:59:13;3.97;;;3.20;;
67037;SDS011;53940;53.204;6.590;2024-03-08T02:02:14;4.03;;;3.25;;
67037;SDS011;53940;53.204;6.590;2024-03-08T02:05:18;3.38;;;2.88;;
67037;SDS011;53940;53.204;6.590;2024-03-08T02:08:18;4.07;;;3.50;;
67037;SDS011;53940;53.204;6.590;2024-03-08T02:11:22;6.03;;;3.47;;
67037;SDS011;53940;53.204;6.590;2024-03-08T02:14:23;3.78;;;3.25;;
67037;SDS011;53940;53.204;6.590;2024-03-08T02:17:23;4.28;;;3.22;;
67037;SDS011;53940;53.204;6.590;2024-03-08T02:20:24;3.92;;;3.30;;
67037;SDS011;53940;53.204;6.590;2024-03-08T02:23:25;4.50;;;3.65;;
67037;SDS011;53940;53.204;6.590;2024-03-08T02:26:26;4.70;;;3.40;;
67037;SDS011;53940;53.204;6.590;2024-03-08T02:29:27;4.22;;;3.35;;
67037;SDS011;53940;53.204;6.590;2024-03-08T02:32:29;5.15;;;3.10;;
67037;SDS011;53940;53.204;6.590;2024-03-08T02:35:31;4.15;;;3.30;;
67037;SDS011;53940;53.204;6.590;2024-03-08T02:38:32;5.45;;;3.78;;
67037;SDS011;53940;53.204;6.590;2024-03-08T02:41:33;4.50;;;3.40;;
67037;SDS011;53940;53.204;6.590;2024-03-08T02:44:33;4.10;;;3.40;;
67037;SDS011;53940;53.204;6.590;2024-03-08T02:47:33;4.57;;;3.45;;
67037;SDS011;53940;53.204;6.590;2024-03-08T02:50:34;4.20;;;3.33;;
67037;SDS011;53940;53.204;6.590;2024-03-08T02:53:35;4.38;;;3.47;;
67037;SDS011;53940;53.204;6.590;2024-03-08T02:56:35;4.47;;;3.53;;
67037;SDS011;53940;53.204;6.590;2024-03-08T02:59:35;4.68;;;3.35;;
67037;SDS011;53940;53.204;6.590;2024-03-08T03:02:39;4.00;;;3.45;;
67037;SDS011;53940;53.204;6.590;2024-03-08T03:05:40;4.30;;;3.40;;
67037;SDS011;53940;53.204;6.590;2024-03-08T03:08:43;4.18;;;3.17;;
67037;SDS011;53940;53.204;6.590;2024-03-08T03:11:45;4.22;;;3.60;;
67037;SDS011;53940;53.204;6.590;2024-03-08T03:14:46;4.78;;;3.70;;
67037;SDS011;53940;53.204;6.590;2024-03-08T03:17:50;4.32;;;3.40;;
67037;SDS011;53940;53.204;6.590;2024-03-08T03:20:51;3.72;;;3.17;;
67037;SDS011;53940;53.204;6.590;2024-03-08T03:23:51;4.68;;;3.60;;
67037;SDS011;53940;53.204;6.590;2024-03-08T03:26:52;4.10;;;3.25;;
67037;SDS011;53940;53.204;6.590;2024-03-08T03:29:53;3.35;;;2.90;;
67037;SDS011;53940;53.204;6.590;2024-03-08T03:32:53;4.07;;;3.47;;
67037;SDS011;53940;53.204;6.590;2024-03-08T03:35:54;4.80;;;3.60;;
67037;SDS011;53940;53.204;6.590;2024-03-08T03:38:54;4.60;;;3.38;;
67037;SDS011;53940;53.204;6.590;2024-03-08T03:42:11;4.25;;;3.50;;
67037;SDS011;53940;53.204;6.590;2024-03-08T03:45:11;4.03;;;3.33;;
67037;SDS011;53940;53.204;6.590;2024-03-08T03:48:11;5.82;;;3.72;;
67037;SDS011;53940;53.204;6.590;2024-03-08T03:51:12;4.15;;;3.53;;
67037;SDS011;53940;53.204;6.590;2024-03-08T03:54:15;4.30;;;3.63;;
67037;SDS011;53940;53.204;6.590;2024-03-08T03:57:15;4.68;;;3.63;;
67037;SDS011;53940;53.204;6.590;2024-03-08T04:00:16;4.32;;;3.50;;
67037;SDS011;53940;53.204;6.590;2024-03-08T04:03:16;4.85;;;3.83;;
67037;SDS011;53940;53.204;6.590;2024-03-08T04:06:16;4.38;;;3.47;;
67037;SDS011;53940;53.204;6.590;2024-03-08T04:09:17;4.30;;;3.42;;
67037;SDS011;53940;53.204;6.590;2024-03-08T04:12:19;4.32;;;3.53;;
67037;SDS011;53940;53.204;6.590;2024-03-08T04:15:19;4.50;;;3.40;;
67037;SDS011;53940;53.204;6.590;2024-03-08T04:18:20;4.50;;;3.30;;
67037;SDS011;53940;53.204;6.590;2024-03-08T04:21:21;4.10;;;3.25;;
67037;SDS011;53940;53.204;6.590;2024-03-08T04:24:21;4.15;;;3.70;;
67037;SDS011;53940;53.204;6.590;2024-03-08T04:27:21;4.18;;;2.95;;
67037;SDS011;53940;53.204;6.590;2024-03-08T04:30:21;3.33;;;2.67;;
67037;SDS011;53940;53.204;6.590;2024-03-08T04:33:22;3.97;;;3.17;;
67037;SDS011;53940;53.204;6.590;2024-03-08T04:36:23;4.32;;;3.35;;
67037;SDS011;53940;53.204;6.590;2024-03-08T04:39:24;4.05;;;3.13;;
67037;SDS011;53940;53.204;6.590;2024-03-08T04:42:28;3.53;;;2.92;;
67037;SDS011;53940;53.204;6.590;2024-03-08T04:45:29;2.97;;;2.50;;
67037;SDS011;53940;53.204;6.590;2024-03-08T04:48:29;3.30;;;2.80;;
67037;SDS011;53940;53.204;6.590;2024-03-08T04:51:30;3.78;;;2.92;;
67037;SDS011;53940;53.204;6.590;2024-03-08T04:54:30;3.70;;;2.90;;
67037;SDS011;53940;53.204;6.590;2024-03-08T04:57:31;3.80;;;2.83;;
67037;SDS011;53940;53.204;6.590;2024-03-08T05:00:32;3.33;;;2.70;;
67037;SDS011;53940;53.204;6.590;2024-03-08T05:03:32;4.10;;;3.05;;
67037;SDS011;53940;53.204;6.590;2024-03-08T05:06:33;3.58;;;2.70;;
67037;SDS011;53940;53.204;6.590;2024-03-08T05:09:33;3.40;;;2.60;;
67037;SDS011;53940;53.204;6.590;2024-03-08T05:12:36;3.58;;;2.70;;
67037;SDS011;53940;53.204;6.590;2024-03-08T05:15:36;3.70;;;2.85;;
67037;SDS011;53940;53.204;6.590;2024-03-08T05:18:36;4.05;;;2.90;;
67037;SDS011;53940;53.204;6.590;2024-03-08T05:21:37;3.47;;;2.80;;
67037;SDS011;53940;53.204;6.590;2024-03-08T05:24:37;3.70;;;2.47;;
67037;SDS011;53940;53.204;6.590;2024-03-08T05:27:37;3.70;;;2.47;;
67037;SDS011;53940;53.204;6.590;2024-03-08T05:30:38;3.20;;;2.58;;
67037;SDS011;53940;53.204;6.590;2024-03-08T05:33:39;4.68;;;3.05;;
67037;SDS011;53940;53.204;6.590;2024-03-08T05:36:39;2.95;;;2.40;;
67037;SDS011;53940;53.204;6.590;2024-03-08T05:39:40;3.13;;;2.53;;
67037;SDS011;53940;53.204;6.590;2024-03-08T05:42:41;3.42;;;2.70;;
67037;SDS011;53940;53.204;6.590;2024-03-08T05:45:41;3.53;;;2.60;;
67037;SDS011;53940;53.204;6.590;2024-03-08T05:48:41;3.78;;;2.72;;
67037;SDS011;53940;53.204;6.590;2024-03-08T05:51:42;3.35;;;2.60;;
67037;SDS011;53940;53.204;6.590;2024-03-08T05:54:42;3.22;;;2.42;;
67037;SDS011;53940;53.204;6.590;2024-03-08T05:57:43;3.17;;;2.20;;
67037;SDS011;53940;53.204;6.590;2024-03-08T06:00:44;3.50;;;2.80;;
67037;SDS011;53940;53.204;6.590;2024-03-08T06:03:46;3.03;;;2.33;;
67037;SDS011;53940;53.204;6.590;2024-03-08T06:06:47;3.70;;;2.70;;
67037;SDS011;53940;53.204;6.590;2024-03-08T06:09:48;3.00;;;2.33;;
67037;SDS011;53940;53.204;6.590;2024-03-08T06:12:49;2.88;;;2.30;;
67037;SDS011;53940;53.204;6.590;2024-03-08T06:15:49;3.10;;;2.28;;
67037;SDS011;53940;53.204;6.590;2024-03-08T06:18:50;3.55;;;2.88;;
67037;SDS011;53940;53.204;6.590;2024-03-08T06:21:50;3.10;;;2.17;;
67037;SDS011;53940;53.204;6.590;2024-03-08T06:24:50;3.58;;;2.50;;
67037;SDS011;53940;53.204;6.590;2024-03-08T06:27:51;2.83;;;2.15;;
67037;SDS011;53940;53.204;6.590;2024-03-08T06:30:53;3.63;;;2.83;;
67037;SDS011;53940;53.204;6.590;2024-03-08T06:33:53;3.15;;;2.10;;
67037;SDS011;53940;53.204;6.590;2024-03-08T06:36:57;2.88;;;2.10;;
67037;SDS011;53940;53.204;6.590;2024-03-08T06:40:00;2.80;;;2.40;;
67037;SDS011;53940;53.204;6.590;2024-03-08T06:43:02;3.08;;;2.15;;
67037;SDS011;53940;53.204;6.590;2024-03-08T06:46:05;2.80;;;2.00;;
67037;SDS011;53940;53.204;6.590;2024-03-08T06:49:06;3.05;;;2.45;;
67037;SDS011;53940;53.204;6.590;2024-03-08T06:52:07;2.80;;;2.20;;
67037;SDS011;53940;53.204;6.590;2024-03-08T06:55:09;2.80;;;2.15;;
67037;SDS011;53940;53.204;6.590;2024-03-08T06:58:12;3.17;;;2.17;;
67037;SDS011;53940;53.204;6.590;2024-03-08T07:01:13;3.38;;;2.05;;
67037;SDS011;53940;53.204;6.590;2024-03-08T07:04:14;2.92;;;1.88;;
67037;SDS011;53940;53.204;6.590;2024-03-08T07:07:14;2.88;;;2.22;;
67037;SDS011;53940;53.204;6.590;2024-03-08T07:10:15;3.03;;;2.28;;
67037;SDS011;53940;53.204;6.590;2024-03-08T07:13:15;2.88;;;2.10;;
67037;SDS011;53940;53.204;6.590;2024-03-08T07:16:16;2.75;;;2.00;;
67037;SDS011;53940;53.204;6.590;2024-03-08T07:19:17;3.10;;;2.30;;
67037;SDS011;53940;53.204;6.590;2024-03-08T07:22:17;2.80;;;2.00;;
67037;SDS011;53940;53.204;6.590;2024-03-08T07:25:18;3.50;;;2.33;;
67037;SDS011;53940;53.204;6.590;2024-03-08T07:28:21;3.05;;;2.10;;
67037;SDS011;53940;53.204;6.590;2024-03-08T07:31:21;2.80;;;2.10;;
67037;SDS011;53940;53.204;6.590;2024-03-08T07:34:25;2.45;;;1.80;;
67037;SDS011;53940;53.204;6.590;2024-03-08T07:37:25;2.90;;;2.00;;
67037;SDS011;53940;53.204;6.590;2024-03-08T07:40:25;2.95;;;2.10;;
67037;SDS011;53940;53.204;6.590;2024-03-08T07:43:26;2.80;;;1.90;;
67037;SDS011;53940;53.204;6.590;2024-03-08T07:46:27;3.05;;;1.90;;
67037;SDS011;53940;53.204;6.590;2024-03-08T07:49:29;3.10;;;2.10;;
67037;SDS011;53940;53.204;6.590;2024-03-08T07:52:30;3.45;;;2.47;;
67037;SDS011;53940;53.204;6.590;2024-03-08T07:55:30;3.33;;;2.05;;
67037;SDS011;53940;53.204;6.590;2024-03-08T07:58:31;3.15;;;2.08;;
67037;SDS011;53940;53.204;6.590;2024-03-08T08:01:32;3.38;;;2.17;;
67037;SDS011;53940;53.204;6.590;2024-03-08T08:04:33;2.50;;;1.98;;
67037;SDS011;53940;53.204;6.590;2024-03-08T08:07:34;3.00;;;2.00;;
67037;SDS011;53940;53.204;6.590;2024-03-08T08:10:34;3.58;;;2.13;;
67037;SDS011;53940;53.204;6.590;2024-03-08T08:13:35;3.40;;;2.00;;
67037;SDS011;53940;53.204;6.590;2024-03-08T08:16:36;2.78;;;1.90;;
67037;SDS011;53940;53.204;6.590;2024-03-08T08:19:37;3.22;;;1.92;;
67037;SDS011;53940;53.204;6.590;2024-03-08T08:22:39;3.25;;;1.92;;
67037;SDS011;53940;53.204;6.590;2024-03-08T08:25:40;4.25;;;1.95;;
67037;SDS011;53940;53.204;6.590;2024-03-08T08:28:40;3.25;;;2.03;;
67037;SDS011;53940;53.204;6.590;2024-03-08T08:31:41;3.33;;;1.92;;
67037;SDS011;53940;53.204;6.590;2024-03-08T08:34:41;3.20;;;2.00;;
67037;SDS011;53940;53.204;6.590;2024-03-08T08:37:44;3.25;;;2.13;;
67037;SDS011;53940;53.204;6.590;2024-03-08T08:40:44;2.30;;;1.90;;
67037;SDS011;53940;53.204;6.590;2024-03-08T08:43:45;3.45;;;1.80;;
67037;SDS011;53940;53.204;6.590;2024-03-08T08:46:45;3.97;;;2.00;;
67037;SDS011;53940;53.204;6.590;2024-03-08T08:49:46;2.22;;;1.67;;
67037;SDS011;53940;53.204;6.590;2024-03-08T08:52:46;3.08;;;2.05;;
67037;SDS011;53940;53.204;6.590;2024-03-08T08:55:47;3.33;;;2.00;;
67037;SDS011;53940;53.204;6.590;2024-03-08T08:58:47;2.58;;;1.90;;
67037;SDS011;53940;53.204;6.590;2024-03-08T09:01:49;2.63;;;1.63;;
67037;SDS011;53940;53.204;6.590;2024-03-08T09:04:50;4.35;;;2.05;;
67037;SDS011;53940;53.204;6.590;2024-03-08T09:07:50;2.65;;;1.77;;
67037;SDS011;53940;53.204;6.590;2024-03-08T09:10:51;3.28;;;1.77;;
67037;SDS011;53940;53.204;6.590;2024-03-08T09:13:51;2.88;;;2.00;;
67037;SDS011;53940;53.204;6.590;2024-03-08T09:16:53;3.83;;;2.10;;
67037;SDS011;53940;53.204;6.590;2024-03-08T09:19:53;2.85;;;2.15;;
67037;SDS011;53940;53.204;6.590;2024-03-08T09:22:54;3.42;;;1.85;;
67037;SDS011;53940;53.204;6.590;2024-03-08T09:25:54;2.70;;;1.90;;
67037;SDS011;53940;53.204;6.590;2024-03-08T09:28:55;3.28;;;1.90;;
67037;SDS011;53940;53.204;6.590;2024-03-08T09:31:55;2.63;;;2.05;;
67037;SDS011;53940;53.204;6.590;2024-03-08T09:34:56;3.30;;;2.10;;
67037;SDS011;53940;53.204;6.590;2024-03-08T09:37:56;2.67;;;1.90;;
67037;SDS011;53940;53.204;6.590;2024-03-08T09:40:57;2.83;;;2.15;;
67037;SDS011;53940;53.204;6.590;2024-03-08T09:43:57;3.00;;;2.05;;
67037;SDS011;53940;53.204;6.590;2024-03-08T09:46:59;3.20;;;1.90;;
67037;SDS011;53940;53.204;6.590;2024-03-08T09:50:02;3.72;;;2.28;;
67037;SDS011;53940;53.204;6.590;2024-03-08T09:53:02;3.92;;;2.22;;
67037;SDS011;53940;53.204;6.590;2024-03-08T09:56:03;3.05;;;2.10;;
67037;SDS011;53940;53.204;6.590;2024-03-08T09:59:04;2.92;;;2.10;;
67037;SDS011;53940;53.204;6.590;2024-03-08T10:02:22;3.00;;;2.15;;
67037;SDS011;53940;53.204;6.590;2024-03-08T10:05:23;2.67;;;2.00;;
67037;SDS011;53940;53.204;6.590;2024-03-08T10:08:23;2.85;;;1.98;;
67037;SDS011;53940;53.204;6.590;2024-03-08T10:11:24;2.65;;;1.83;;
67037;SDS011;53940;53.204;6.590;2024-03-08T10:14:25;2.58;;;1.88;;
67037;SDS011;53940;53.204;6.590;2024-03-08T10:17:28;3.17;;;1.92;;
67037;SDS011;53940;53.204;6.590;2024-03-08T10:20:32;3.78;;;2.08;;
67037;SDS011;53940;53.204;6.590;2024-03-08T10:23:34;2.63;;;1.90;;
67037;SDS011;53940;53.204;6.590;2024-03-08T10:26:34;3.90;;;2.45;;
67037;SDS011;53940;53.204;6.590;2024-03-08T10:29:37;2.70;;;2.00;;
67037;SDS011;53940;53.204;6.590;2024-03-08T10:32:38;2.50;;;1.80;;
67037;SDS011;53940;53.204;6.590;2024-03-08T10:35:41;3.13;;;2.03;;
67037;SDS011;53940;53.204;6.590;2024-03-08T10:38:42;2.88;;;2.10;;
67037;SDS011;53940;53.204;6.590;2024-03-08T10:41:48;2.83;;;2.05;;
67037;SDS011;53940;53.204;6.590;2024-03-08T10:45:05;2.67;;;1.88;;
67037;SDS011;53940;53.204;6.590;2024-03-08T10:51:39;2.60;;;2.00;;
67037;SDS011;53940;53.204;6.590;2024-03-08T10:54:42;3.17;;;2.00;;
67037;SDS011;53940;53.204;6.590;2024-03-08T10:57:43;2.58;;;1.83;;
67037;SDS011;53940;53.204;6.590;2024-03-08T11:00:43;3.47;;;2.10;;
67037;SDS011;53940;53.204;6.590;2024-03-08T11:03:44;2.75;;;1.98;;
67037;SDS011;53940;53.204;6.590;2024-03-08T11:06:46;2.67;;;2.10;;
67037;SDS011;53940;53.204;6.590;2024-03-08T11:09:47;3.38;;;2.25;;
67037;SDS011;53940;53.204;6.590;2024-03-08T11:12:48;3.50;;;2.05;;
67037;SDS011;53940;53.204;6.590;2024-03-08T11:15:48;3.55;;;2.33;;
67037;SDS011;53940;53.204;6.590;2024-03-08T11:18:49;2.95;;;1.90;;
67037;SDS011;53940;53.204;6.590;2024-03-08T11:21:59;3.28;;;2.13;;
67037;SDS011;53940;53.204;6.590;2024-03-08T11:25:05;3.20;;;1.92;;
67037;SDS011;53940;53.204;6.590;2024-03-08T11:28:13;3.47;;;1.90;;
67037;SDS011;53940;53.204;6.590;2024-03-08T11:31:22;2.60;;;2.05;;
67037;SDS011;53940;53.204;6.590;2024-03-08T11:34:25;3.20;;;2.00;;
67037;SDS011;53940;53.204;6.590;2024-03-08T11:37:26;3.05;;;2.03;;
67037;SDS011;53940;53.204;6.590;2024-03-08T11:40:28;3.50;;;2.42;;
67037;SDS011;53940;53.204;6.590;2024-03-08T11:43:28;3.53;;;2.28;;
67037;SDS011;53940;53.204;6.590;2024-03-08T11:46:29;3.28;;;2.40;;
67037;SDS011;53940;53.204;6.590;2024-03-08T11:49:31;2.70;;;2.10;;
67037;SDS011;53940;53.204;6.590;2024-03-08T11:52:31;2.90;;;2.08;;
67037;SDS011;53940;53.204;6.590;2024-03-08T11:55:32;2.88;;;2.13;;
67037;SDS011;53940;53.204;6.590;2024-03-08T11:58:35;2.80;;;2.10;;
67037;SDS011;53940;53.204;6.590;2024-03-08T12:01:37;2.45;;;1.92;;
67037;SDS011;53940;53.204;6.590;2024-03-08T12:04:37;2.78;;;2.25;;
67037;SDS011;53940;53.204;6.590;2024-03-08T12:07:38;3.33;;;2.25;;
67037;SDS011;53940;53.204;6.590;2024-03-08T12:10:38;2.88;;;2.20;;
67037;SDS011;53940;53.204;6.590;2024-03-08T12:13:39;2.90;;;2.13;;
67037;SDS011;53940;53.204;6.590;2024-03-08T12:16:40;3.00;;;2.20;;
67037;SDS011;53940;53.204;6.590;2024-03-08T12:19:45;3.03;;;2.28;;
67037;SDS011;53940;53.204;6.590;2024-03-08T12:22:47;2.95;;;2.20;;
67037;SDS011;53940;53.204;6.590;2024-03-08T12:25:47;3.67;;;2.33;;
67037;SDS011;53940;53.204;6.590;2024-03-08T12:28:48;3.05;;;2.20;;
67037;SDS011;53940;53.204;6.590;2024-03-08T12:31:50;5.13;;;2.28;;
67037;SDS011;53940;53.204;6.590;2024-03-08T12:34:52;3.35;;;2.33;;
67037;SDS011;53940;53.204;6.590;2024-03-08T12:37:54;2.90;;;2.10;;
67037;SDS011;53940;53.204;6.590;2024-03-08T12:40:57;3.22;;;2.40;;
67037;SDS011;53940;53.204;6.590;2024-03-08T12:43:58;3.13;;;2.30;;
67037;SDS011;53940;53.204;6.590;2024-03-08T12:46:59;3.10;;;2.42;;
67037;SDS011;53940;53.204;6.590;2024-03-08T12:49:59;3.05;;;2.50;;
67037;SDS011;53940;53.204;6.590;2024-03-08T12:52:59;3.08;;;2.35;;
67037;SDS011;53940;53.204;6.590;2024-03-08T12:56:01;2.83;;;2.25;;
67037;SDS011;53940;53.204;6.590;2024-03-08T12:59:04;3.08;;;2.55;;
67037;SDS011;53940;53.204;6.590;2024-03-08T13:02:05;3.22;;;2.50;;
67037;SDS011;53940;53.204;6.590;2024-03-08T13:05:11;3.53;;;2.65;;
67037;SDS011;53940;53.204;6.590;2024-03-08T13:08:14;3.75;;;2.72;;
67037;SDS011;53940;53.204;6.590;2024-03-08T13:11:14;3.58;;;2.60;;
67037;SDS011;53940;53.204;6.590;2024-03-08T13:14:14;3.70;;;2.60;;
67037;SDS011;53940;53.204;6.590;2024-03-08T13:17:15;3.00;;;2.33;;
67037;SDS011;53940;53.204;6.590;2024-03-08T13:20:16;3.28;;;2.13;;
67037;SDS011;53940;53.204;6.590;2024-03-08T13:23:18;3.38;;;2.33;;
67037;SDS011;53940;53.204;6.590;2024-03-08T13:26:19;3.38;;;2.30;;
67037;SDS011;53940;53.204;6.590;2024-03-08T13:29:19;3.17;;;2.47;;
67037;SDS011;53940;53.204;6.590;2024-03-08T13:32:22;2.90;;;2.38;;
67037;SDS011;53940;53.204;6.590;2024-03-08T13:35:22;2.60;;;2.30;;
67037;SDS011;53940;53.204;6.590;2024-03-08T13:38:27;3.20;;;2.30;;
67037;SDS011;53940;53.204;6.590;2024-03-08T13:41:27;3.53;;;2.30;;
67037;SDS011;53940;53.204;6.590;2024-03-08T13:44:28;3.42;;;2.60;;
67037;SDS011;53940;53.204;6.590;2024-03-08T13:47:28;3.08;;;2.42;;
67037;SDS011;53940;53.204;6.590;2024-03-08T13:50:28;3.72;;;2.67;;
67037;SDS011;53940;53.204;6.590;2024-03-08T13:53:30;2.90;;;2.35;;
67037;SDS011;53940;53.204;6.590;2024-03-08T13:56:30;2.88;;;2.17;;
67037;SDS011;53940;53.204;6.590;2024-03-08T13:59:31;2.95;;;2.28;;
67037;SDS011;53940;53.204;6.590;2024-03-08T14:02:33;3.42;;;2.47;;
67037;SDS011;53940;53.204;6.590;2024-03-08T14:05:33;2.95;;;2.20;;
67037;SDS011;53940;53.204;6.590;2024-03-08T14:08:35;2.83;;;2.33;;
67037;SDS011;53940;53.204;6.590;2024-03-08T14:11:37;3.22;;;2.30;;
67037;SDS011;53940;53.204;6.590;2024-03-08T14:14:38;3.55;;;2.45;;
67037;SDS011;53940;53.204;6.590;2024-03-08T14:17:39;3.00;;;2.38;;
67037;SDS011;53940;53.204;6.590;2024-03-08T14:20:39;3.20;;;2.70;;
67037;SDS011;53940;53.204;6.590;2024-03-08T14:23:42;3.05;;;2.42;;
67037;SDS011;53940;53.204;6.590;2024-03-08T14:26:43;2.88;;;2.50;;
67037;SDS011;53940;53.204;6.590;2024-03-08T14:29:44;2.90;;;2.38;;
67037;SDS011;53940;53.204;6.590;2024-03-08T14:32:45;3.22;;;2.20;;
67037;SDS011;53940;53.204;6.590;2024-03-08T14:35:47;4.13;;;2.30;;
67037;SDS011;53940;53.204;6.590;2024-03-08T14:38:47;3.10;;;2.33;;
67037;SDS011;53940;53.204;6.590;2024-03-08T14:41:47;2.80;;;2.20;;
67037;SDS011;53940;53.204;6.590;2024-03-08T14:44:48;3.17;;;2.38;;
67037;SDS011;53940;53.204;6.590;2024-03-08T14:47:51;3.58;;;2.47;;
67037;SDS011;53940;53.204;6.590;2024-03-08T14:50:51;3.15;;;2.50;;
67037;SDS011;53940;53.204;6.590;2024-03-08T14:53:52;3.22;;;2.20;;
67037;SDS011;53940;53.204;6.590;2024-03-08T14:56:54;2.78;;;2.38;;
67037;SDS011;53940;53.204;6.590;2024-03-08T14:59:56;3.00;;;2.13;;
67037;SDS011;53940;53.204;6.590;2024-03-08T15:03:02;2.85;;;2.17;;
67037;SDS011;53940;53.204;6.590;2024-03-08T15:06:04;3.70;;;2.40;;
67037;SDS011;53940;53.204;6.590;2024-03-08T15:09:08;3.20;;;2.30;;
67037;SDS011;53940;53.204;6.590;2024-03-08T15:12:17;3.63;;;2.80;;
67037;SDS011;53940;53.204;6.590;2024-03-08T15:15:17;2.88;;;2.40;;
67037;SDS011;53940;53.204;6.590;2024-03-08T15:18:18;3.47;;;2.60;;
67037;SDS011;53940;53.204;6.590;2024-03-08T15:21:18;3.15;;;2.30;;
67037;SDS011;53940;53.204;6.590;2024-03-08T15:24:19;3.17;;;2.42;;
67037;SDS011;53940;53.204;6.590;2024-03-08T15:27:22;2.80;;;2.33;;
67037;SDS011;53940;53.204;6.590;2024-03-08T15:30:23;3.10;;;2.42;;
67037;SDS011;53940;53.204;6.590;2024-03-08T15:33:26;3.20;;;2.50;;
67037;SDS011;53940;53.204;6.590;2024-03-08T15:36:29;3.45;;;2.67;;
67037;SDS011;53940;53.204;6.590;2024-03-08T15:39:33;3.03;;;2.22;;
67037;SDS011;53940;53.204;6.590;2024-03-08T15:42:33;2.92;;;2.40;;
67037;SDS011;53940;53.204;6.590;2024-03-08T15:45:34;4.00;;;2.63;;
67037;SDS011;53940;53.204;6.590;2024-03-08T15:48:37;3.20;;;2.67;;
67037;SDS011;53940;53.204;6.590;2024-03-08T15:51:41;3.17;;;2.60;;
67037;SDS011;53940;53.204;6.590;2024-03-08T15:54:44;2.88;;;2.42;;
67037;SDS011;53940;53.204;6.590;2024-03-08T15:57:46;2.78;;;2.22;;
67037;SDS011;53940;53.204;6.590;2024-03-08T16:00:47;3.00;;;2.38;;
67037;SDS011;53940;53.204;6.590;2024-03-08T16:03:48;3.40;;;2.53;;
67037;SDS011;53940;53.204;6.590;2024-03-08T16:06:52;2.90;;;2.55;;
67037;SDS011;53940;53.204;6.590;2024-03-08T16:09:53;3.13;;;2.38;;
67037;SDS011;53940;53.204;6.590;2024-03-08T16:12:57;4.28;;;2.70;;
67037;SDS011;53940;53.204;6.590;2024-03-08T16:15:57;2.80;;;2.35;;
67037;SDS011;53940;53.204;6.590;2024-03-08T16:18:58;3.35;;;2.60;;
67037;SDS011;53940;53.204;6.590;2024-03-08T16:21:58;2.80;;;2.35;;
67037;SDS011;53940;53.204;6.590;2024-03-08T16:24:59;3.13;;;2.35;;
67037;SDS011;53940;53.204;6.590;2024-03-08T16:27:59;3.78;;;2.42;;
67037;SDS011;53940;53.204;6.590;2024-03-08T16:30:59;2.97;;;2.28;;
67037;SDS011;53940;53.204;6.590;2024-03-08T16:34:00;2.80;;;2.15;;
67037;SDS011;53940;53.204;6.590;2024-03-08T16:37:00;2.95;;;2.30;;
67037;SDS011;53940;53.204;6.590;2024-03-08T16:40:02;3.17;;;2.40;;
67037;SDS011;53940;53.204;6.590;2024-03-08T16:43:03;3.03;;;2.35;;
67037;SDS011;53940;53.204;6.590;2024-03-08T16:46:04;3.30;;;2.60;;
67037;SDS011;53940;53.204;6.590;2024-03-08T16:49:04;2.92;;;2.30;;
67037;SDS011;53940;53.204;6.590;2024-03-08T16:52:05;2.92;;;2.38;;
67037;SDS011;53940;53.204;6.590;2024-03-08T16:55:05;4.15;;;2.70;;
67037;SDS011;53940;53.204;6.590;2024-03-08T16:58:07;3.03;;;2.38;;
67037;SDS011;53940;53.204;6.590;2024-03-08T17:01:14;3.00;;;2.42;;
67037;SDS011;53940;53.204;6.590;2024-03-08T17:04:16;3.38;;;2.33;;
67037;SDS011;53940;53.204;6.590;2024-03-08T17:07:18;3.25;;;2.50;;
67037;SDS011;53940;53.204;6.590;2024-03-08T17:10:19;3.10;;;2.50;;
67037;SDS011;53940;53.204;6.590;2024-03-08T17:13:20;2.83;;;2.45;;
67037;SDS011;53940;53.204;6.590;2024-03-08T17:16:20;3.10;;;2.30;;
67037;SDS011;53940;53.204;6.590;2024-03-08T17:19:24;3.13;;;2.38;;
67037;SDS011;53940;53.204;6.590;2024-03-08T17:22:29;2.95;;;2.25;;
67037;SDS011;53940;53.204;6.590;2024-03-08T17:25:30;3.25;;;2.40;;
67037;SDS011;53940;53.204;6.590;2024-03-08T17:28:31;2.65;;;2.05;;
67037;SDS011;53940;53.204;6.590;2024-03-08T17:31:36;3.55;;;2.20;;
67037;SDS011;53940;53.204;6.590;2024-03-08T17:34:36;2.97;;;2.33;;
67037;SDS011;53940;53.204;6.590;2024-03-08T17:37:37;3.65;;;2.20;;
67037;SDS011;53940;53.204;6.590;2024-03-08T17:40:38;3.17;;;2.58;;
67037;SDS011;53940;53.204;6.590;2024-03-08T17:43:40;3.20;;;2.60;;
67037;SDS011;53940;53.204;6.590;2024-03-08T17:46:41;2.92;;;2.28;;
67037;SDS011;53940;53.204;6.590;2024-03-08T17:49:42;2.65;;;2.17;;
67037;SDS011;53940;53.204;6.590;2024-03-08T17:52:46;2.97;;;2.42;;
67037;SDS011;53940;53.204;6.590;2024-03-08T17:55:47;2.55;;;2.08;;
67037;SDS011;53940;53.204;6.590;2024-03-08T17:58:50;3.08;;;2.28;;
67037;SDS011;53940;53.204;6.590;2024-03-08T18:01:50;2.83;;;2.22;;
67037;SDS011;53940;53.204;6.590;2024-03-08T18:04:51;3.20;;;2.40;;
67037;SDS011;53940;53.204;6.590;2024-03-08T18:07:51;3.60;;;2.47;;
67037;SDS011;53940;53.204;6.590;2024-03-08T18:10:52;3.28;;;2.28;;
67037;SDS011;53940;53.204;6.590;2024-03-08T18:13:52;2.72;;;2.15;;
67037;SDS011;53940;53.204;6.590;2024-03-08T18:16:53;2.70;;;2.13;;